Time;durP1;ratioP1;P1;durP2;ratioP2;P2;SDS_P1;SDS_P2;PMS_P1;PMS_P2;Temp;Humidity;BMP_temperature;BMP_pressure;BME280_temperature;BME280_humidity;BME280_pressure;Samples;Min_cycle;Max_cycle;Signal;HPM_P1;HPM_P2
2023/08/07 00:00:12;;;;;;;0.30;0.30;;;23.80;74.40;;;;;;6240898;23;20197;-85
2023/08/07 00:02:41;;;;;;;0.75;0.47;;;23.80;74.70;;;;;;6241331;23;20190;-85
2023/08/07 00:05:09;;;;;;;0.40;0.40;;;23.70;74.90;;;;;;6239844;23;20193;-84
2023/08/07 00:07:38;;;;;;;0.20;0.20;;;23.70;75.00;;;;;;6240087;23;20182;-85
2023/08/07 00:10:08;;;;;;;1.33;0.50;;;23.70;75.20;;;;;;6239179;23;20166;-85
2023/08/07 00:12:36;;;;;;;0.40;0.40;;;23.70;75.30;;;;;;6239474;23;20221;-87
2023/08/07 00:15:08;;;;;;;0.20;0.20;;;23.70;75.40;;;;;;6240086;23;20166;-84
2023/08/07 00:17:37;;;;;;;0.40;0.40;;;23.60;75.70;;;;;;6238680;23;20171;-86
2023/08/07 00:20:07;;;;;;;0.32;0.32;;;23.60;76.10;;;;;;6239811;23;20959;-85
2023/08/07 00:22:35;;;;;;;0.20;0.20;;;23.60;76.40;;;;;;6238587;23;20202;-86
2023/08/07 00:25:04;;;;;;;0.60;0.35;;;23.50;76.70;;;;;;6239525;23;20171;-84
2023/08/07 00:27:33;;;;;;;0.30;0.20;;;23.40;76.90;;;;;;6240471;23;20198;-86
2023/08/07 00:30:02;;;;;;;0.28;0.28;;;23.40;76.90;;;;;;6239123;23;20175;-85
2023/08/07 00:32:32;;;;;;;0.20;0.20;;;23.40;78.10;;;;;;6243902;23;20496;-85
2023/08/07 00:35:01;;;;;;;0.32;0.32;;;23.40;77.30;;;;;;6241212;23;20234;-86
2023/08/07 00:37:29;;;;;;;1.17;0.30;;;23.40;77.50;;;;;;6242379;23;20499;-84
2023/08/07 00:39:58;;;;;;;0.20;0.20;;;23.30;77.80;;;;;;6214616;23;20253;-84
2023/08/07 00:42:27;;;;;;;0.55;0.55;;;23.30;78.20;;;;;;6240712;23;20202;-83
2023/08/07 00:44:55;;;;;;;3.40;0.60;;;23.20;78.50;;;;;;6242594;23;20166;-83
2023/08/07 00:47:24;;;;;;;0.20;0.20;;;23.20;78.50;;;;;;6242492;23;20171;-86
2023/08/07 00:49:54;;;;;;;0.35;0.20;;;23.20;78.90;;;;;;6241794;23;20246;-83
2023/08/07 00:52:23;;;;;;;0.20;0.20;;;23.20;79.10;;;;;;6242363;23;20172;-86
2023/08/07 00:54:51;;;;;;;0.20;0.20;;;23.10;79.80;;;;;;6242132;23;20177;-84
2023/08/07 00:57:22;;;;;;;0.10;0.10;;;23.10;80.20;;;;;;6214976;23;20166;-85
2023/08/07 00:59:51;;;;;;;0.25;0.25;;;23.10;79.80;;;;;;6215875;23;20158;-84
2023/08/07 01:02:20;;;;;;;0.25;0.25;;;23.00;80.10;;;;;;6241240;23;20210;-84
2023/08/07 01:04:49;;;;;;;0.47;0.40;;;23.10;80.10;;;;;;6242345;23;20507;-83
2023/08/07 01:07:19;;;;;;;0.20;0.20;;;23.00;80.20;;;;;;6240575;23;20612;-85
2023/08/07 01:09:48;;;;;;;0.28;0.28;;;23.00;80.70;;;;;;6240650;23;20246;-83
2023/08/07 01:12:21;;;;;;;0.30;0.30;;;23.00;80.70;;;;;;6215995;23;20205;-85
2023/08/07 01:14:56;;;;;;;0.57;0.57;;;22.90;81.10;;;;;;6215982;23;20159;-83
2023/08/07 01:17:25;;;;;;;0.57;0.40;;;22.90;81.10;;;;;;6242227;23;20207;-84
2023/08/07 01:19:54;;;;;;;1.42;1.33;;;22.90;81.60;;;;;;6241436;23;20171;-84
2023/08/07 01:22:24;;;;;;;0.43;0.43;;;22.90;81.80;;;;;;6242086;23;20931;-84
2023/08/07 01:24:53;;;;;;;1.00;0.38;;;22.80;81.80;;;;;;6241990;23;20171;-84
2023/08/07 01:27:32;;;;;;;0.85;0.30;;;22.80;82.30;;;;;;6240855;23;20205;-83
2023/08/07 01:30:10;;;;;;;0.45;0.45;;;22.80;82.60;;;;;;6241178;23;20161;-84
2023/08/07 01:32:48;;;;;;;0.63;0.50;;;22.70;83.10;;;;;;6243661;23;20162;-84
2023/08/07 01:35:20;;;;;;;0.43;0.43;;;22.70;83.30;;;;;;6241022;23;20159;-84
2023/08/07 01:37:52;;;;;;;0.43;0.32;;;22.70;83.30;;;;;;6242129;23;20246;-83
2023/08/07 01:40:23;;;;;;;0.57;0.57;;;22.60;83.90;;;;;;6242156;23;20155;-85
2023/08/07 01:42:51;;;;;;;0.35;0.35;;;22.60;84.20;;;;;;6241011;23;20194;-82
2023/08/07 01:45:25;;;;;;;0.35;0.35;;;22.50;84.20;;;;;;6241488;23;20174;-83
2023/08/07 01:47:54;;;;;;;1.80;0.85;;;22.50;84.40;;;;;;6242200;23;20165;-84
2023/08/07 01:50:24;;;;;;;0.20;0.20;;;22.40;84.80;;;;;;6241634;23;20182;-83
2023/08/07 01:52:54;;;;;;;0.40;0.40;;;22.40;85.10;;;;;;6240501;23;20170;-83
2023/08/07 01:55:23;;;;;;;0.40;0.40;;;22.40;85.10;;;;;;6241119;23;20158;-84
2023/08/07 01:57:52;;;;;;;0.40;0.40;;;22.30;85.20;;;;;;6243035;23;20245;-83
2023/08/07 02:00:22;;;;;;;0.57;0.32;;;22.30;85.50;;;;;;6241425;23;20506;-85
2023/08/07 02:02:50;;;;;;;0.40;0.40;;;22.30;85.20;;;;;;6241029;23;20201;-83
2023/08/07 02:05:20;;;;;;;0.40;0.40;;;22.20;85.30;;;;;;6215601;23;20167;-85
2023/08/07 02:07:48;;;;;;;0.20;0.20;;;22.20;85.50;;;;;;6241914;23;20639;-84
2023/08/07 02:10:19;;;;;;;0.20;0.20;;;22.10;85.50;;;;;;6241340;23;20181;-83
2023/08/07 02:12:47;;;;;;;0.38;0.38;;;22.10;85.80;;;;;;6211669;23;20233;-84
2023/08/07 02:15:16;;;;;;;0.40;0.40;;;22.10;85.50;;;;;;6209780;23;20517;-82
2023/08/07 02:17:44;;;;;;;0.20;0.20;;;22.10;85.30;;;;;;6185445;23;20194;-83
2023/08/07 02:20:13;;;;;;;0.20;0.20;;;22.10;85.20;;;;;;6211278;23;20709;-84
2023/08/07 02:22:42;;;;;;;0.30;0.30;;;22.00;85.10;;;;;;6209542;23;20195;-83
2023/08/07 02:25:10;;;;;;;0.40;0.40;;;22.00;85.20;;;;;;6209880;23;20254;-83
2023/08/07 02:27:40;;;;;;;0.20;0.20;;;22.00;84.90;;;;;;6184824;23;20609;-87
2023/08/07 02:30:09;;;;;;;0.90;0.40;;;21.90;85.00;;;;;;6210097;23;20171;-82
2023/08/07 02:32:41;;;;;;;2.05;0.65;;;22.00;85.00;;;;;;6184883;23;20178;-84
2023/08/07 02:35:10;;;;;;;0.20;0.20;;;21.90;84.80;;;;;;6209086;23;20242;-82
2023/08/07 02:37:38;;;;;;;0.30;0.30;;;21.90;84.70;;;;;;6210712;23;20167;-85
2023/08/07 02:40:08;;;;;;;0.20;0.20;;;21.80;84.70;;;;;;6211329;23;20167;-85
2023/08/07 02:42:36;;;;;;;0.20;0.20;;;21.80;84.60;;;;;;6209522;23;20198;-82
2023/08/07 02:45:08;;;;;;;0.20;0.20;;;21.80;84.50;;;;;;6208976;23;20167;-84
2023/08/07 02:47:36;;;;;;;0.20;0.20;;;21.80;84.40;;;;;;6209977;23;20163;-84
2023/08/07 02:50:05;;;;;;;0.70;0.57;;;21.80;84.50;;;;;;6209776;23;20505;-84
2023/08/07 02:52:34;;;;;;;0.20;0.20;;;21.80;84.50;;;;;;6204996;23;20206;-83
2023/08/07 02:55:03;;;;;;;0.10;0.10;;;21.70;84.60;;;;;;6182807;23;20167;-85
2023/08/07 02:57:32;;;;;;;0.57;0.43;;;21.60;84.70;;;;;;6210395;23;20167;-85
2023/08/07 03:00:00;;;;;;;0.20;0.20;;;21.60;84.80;;;;;;6181668;23;20173;-82
2023/08/07 03:02:30;;;;;;;0.20;0.20;;;21.60;84.70;;;;;;6207974;23;20186;-86
2023/08/07 03:04:59;;;;;;;0.20;0.20;;;21.50;85.00;;;;;;6206504;23;20182;-83
2023/08/07 03:07:28;;;;;;;0.10;0.10;;;21.50;84.90;;;;;;6176739;23;20179;-83
2023/08/07 03:09:56;;;;;;;0.50;0.50;;;21.50;85.30;;;;;;6211447;23;20171;-85
2023/08/07 03:12:25;;;;;;;0.40;0.40;;;21.50;85.00;;;;;;6238420;23;20194;-84
2023/08/07 03:14:53;;;;;;;0.35;0.35;;;21.50;85.90;;;;;;6241536;23;20174;-84
2023/08/07 03:17:22;;;;;;;0.20;0.20;;;21.40;85.40;;;;;;6215354;23;20170;-83
2023/08/07 03:19:52;;;;;;;0.25;0.25;;;21.40;85.20;;;;;;6240211;23;20707;-85
2023/08/07 03:22:21;;;;;;;0.22;0.22;;;21.40;85.30;;;;;;6239751;23;20177;-84
2023/08/07 03:24:50;;;;;;;0.20;0.20;;;21.40;85.30;;;;;;6233667;23;20204;-85
2023/08/07 03:27:19;;;;;;;0.20;0.20;;;21.30;85.50;;;;;;6239715;23;20170;-86
2023/08/07 03:29:48;;;;;;;0.20;0.20;;;21.30;85.70;;;;;;6243100;23;20236;-84
2023/08/07 03:32:17;;;;;;;0.20;0.20;;;21.20;85.80;;;;;;6240636;23;20177;-84
2023/08/07 03:34:45;;;;;;;0.13;0.13;;;21.30;85.80;;;;;;6231474;23;20277;-84
2023/08/07 03:37:16;;;;;;;0.20;0.20;;;21.30;85.70;;;;;;6235996;23;20174;-83
2023/08/07 03:39:47;;;;;;;0.10;0.10;;;21.20;86.00;;;;;;6240745;23;20635;-86
2023/08/07 03:42:16;;;;;;;0.25;0.25;;;21.20;86.20;;;;;;6240392;23;20688;-84
2023/08/07 03:44:45;;;;;;;0.20;0.20;;;21.20;86.10;;;;;;6240387;23;20679;-85
2023/08/07 03:47:14;;;;;;;0.32;0.32;;;21.20;86.00;;;;;;6241414;23;20501;-84
2023/08/07 03:49:43;;;;;;;0.30;0.30;;;21.20;86.00;;;;;;6238167;23;20177;-86
2023/08/07 03:52:12;;;;;;;0.20;0.20;;;21.20;86.10;;;;;;6238665;23;20173;-86
2023/08/07 03:54:42;;;;;;;0.28;0.28;;;21.20;86.10;;;;;;6241033;23;20567;-85
2023/08/07 03:57:11;;;;;;;0.43;0.43;;;21.30;85.90;;;;;;6240154;23;20232;-84
2023/08/07 03:59:39;;;;;;;0.17;0.17;;;21.30;85.90;;;;;;6243393;23;20173;-86
2023/08/07 04:02:08;;;;;;;0.65;0.50;;;21.30;86.00;;;;;;6243233;23;20162;-83
2023/08/07 04:04:36;;;;;;;0.50;0.50;;;21.20;86.00;;;;;;6244750;23;20205;-84
2023/08/07 04:07:05;;;;;;;0.20;0.20;;;21.20;86.00;;;;;;6246054;23;20182;-85
2023/08/07 04:09:34;;;;;;;0.38;0.30;;;21.20;86.00;;;;;;6245914;23;20166;-84
2023/08/07 04:12:05;;;;;;;1.23;0.82;;;21.20;86.10;;;;;;6244950;23;20244;-88
2023/08/07 04:14:34;;;;;;;1.00;0.75;;;21.20;86.00;;;;;;6245084;23;20159;-84
2023/08/07 04:17:02;;;;;;;0.38;0.38;;;21.30;86.00;;;;;;6244116;23;20174;-83
2023/08/07 04:19:31;;;;;;;0.50;0.50;;;21.30;85.80;;;;;;6243380;23;20162;-84
2023/08/07 04:21:59;;;;;;;2.17;0.57;;;21.30;85.70;;;;;;6244312;23;20184;-86
2023/08/07 04:24:28;;;;;;;0.60;0.50;;;21.30;85.70;;;;;;6242755;23;20671;-85
2023/08/07 04:26:57;;;;;;;0.35;0.22;;;21.30;85.50;;;;;;6216176;23;20612;-87
2023/08/07 04:29:27;;;;;;;0.40;0.40;;;21.30;85.60;;;;;;6243835;23;20174;-84
2023/08/07 04:31:56;;;;;;;0.30;0.30;;;21.40;85.50;;;;;;6244284;23;20176;-84
2023/08/07 04:34:24;;;;;;;0.47;0.30;;;21.40;85.40;;;;;;6216708;23;20174;-86
2023/08/07 04:36:53;;;;;;;0.40;0.40;;;21.50;85.20;;;;;;6244361;23;20178;-86
2023/08/07 04:39:22;;;;;;;0.77;0.60;;;21.40;85.00;;;;;;6244287;23;20217;-84
2023/08/07 04:41:51;;;;;;;0.73;0.65;;;21.40;84.90;;;;;;6243397;23;20167;-86
2023/08/07 04:44:20;;;;;;;0.25;0.25;;;21.40;84.70;;;;;;6241865;23;20194;-86
2023/08/07 04:46:50;;;;;;;0.60;0.50;;;21.40;84.70;;;;;;6244222;23;20166;-85
2023/08/07 04:49:19;;;;;;;0.45;0.38;;;21.50;84.70;;;;;;6215613;23;20608;-84
2023/08/07 04:51:47;;;;;;;0.82;0.52;;;21.50;84.70;;;;;;6239947;23;20175;-84
2023/08/07 04:54:16;;;;;;;0.45;0.45;;;21.50;84.50;;;;;;6240918;23;20484;-86
2023/08/07 04:56:44;;;;;;;0.10;0.10;;;21.60;84.50;;;;;;6241324;23;20217;-84
2023/08/07 04:59:13;;;;;;;0.40;0.40;;;21.60;84.30;;;;;;6242077;23;20202;-83
2023/08/07 05:01:41;;;;;;;0.30;0.25;;;21.60;84.10;;;;;;6240744;23;20181;-87
2023/08/07 05:04:11;;;;;;;0.22;0.22;;;21.60;83.70;;;;;;6243492;23;20245;-86
2023/08/07 05:06:40;;;;;;;0.50;0.43;;;21.70;83.60;;;;;;6241937;23;20548;-88
2023/08/07 05:09:09;;;;;;;0.38;0.35;;;21.70;83.40;;;;;;6243703;23;20179;-86
2023/08/07 05:11:37;;;;;;;0.40;0.40;;;21.80;83.30;;;;;;6242319;23;20194;-84
2023/08/07 05:14:06;;;;;;;0.30;0.30;;;21.70;83.10;;;;;;6243455;23;20226;-85
2023/08/07 05:16:35;;;;;;;0.50;0.38;;;21.80;83.10;;;;;;6242466;23;20216;-87
2023/08/07 05:19:04;;;;;;;0.75;0.70;;;21.80;82.80;;;;;;6241834;23;20563;-85
2023/08/07 05:21:34;;;;;;;0.40;0.30;;;21.90;82.70;;;;;;6242680;23;20170;-86
2023/08/07 05:24:02;;;;;;;1.85;0.50;;;21.90;82.70;;;;;;6243062;23;20159;-86
2023/08/07 05:26:31;;;;;;;0.77;0.32;;;22.00;82.10;;;;;;6243506;23;20175;-85
2023/08/07 05:29:00;;;;;;;1.33;0.45;;;22.00;81.90;;;;;;6242015;23;20507;-86
2023/08/07 05:31:30;;;;;;;0.35;0.35;;;22.00;81.70;;;;;;6244334;23;20258;-87
2023/08/07 05:33:59;;;;;;;0.25;0.25;;;22.00;81.50;;;;;;6215045;23;20163;-84
2023/08/07 05:36:28;;;;;;;0.50;0.50;;;22.10;81.50;;;;;;6241259;23;20180;-85
2023/08/07 05:38:58;;;;;;;0.30;0.30;;;22.20;81.60;;;;;;6242286;23;20863;-87
2023/08/07 05:41:27;;;;;;;0.20;0.20;;;22.20;81.00;;;;;;6242309;23;20178;-85
2023/08/07 05:43:55;;;;;;;0.20;0.20;;;22.30;80.70;;;;;;6215616;23;20224;-85
2023/08/07 05:46:24;;;;;;;6.32;0.57;;;22.30;80.50;;;;;;6243822;23;20197;-85
2023/08/07 05:48:53;;;;;;;0.50;0.40;;;22.40;80.50;;;;;;6242774;23;20171;-87
2023/08/07 05:51:21;;;;;;;0.20;0.20;;;22.50;79.80;;;;;;6242985;23;20620;-86
2023/08/07 05:53:50;;;;;;;0.20;0.20;;;22.50;79.50;;;;;;6243832;23;20173;-88
2023/08/07 05:56:20;;;;;;;0.95;0.60;;;22.60;79.40;;;;;;6242627;23;20228;-87
2023/08/07 05:58:49;;;;;;;0.32;0.30;;;22.60;78.90;;;;;;6240693;23;20597;-83
2023/08/07 06:01:17;;;;;;;0.22;0.22;;;22.70;78.90;;;;;;6243051;23;20174;-89
2023/08/07 06:03:46;;;;;;;0.20;0.20;;;22.70;78.50;;;;;;6243079;23;20163;-85
2023/08/07 06:06:15;;;;;;;0.30;0.30;;;22.70;78.20;;;;;;6239525;23;20252;-85
2023/08/07 06:08:43;;;;;;;0.52;0.40;;;22.80;78.30;;;;;;6242337;23;20206;-87
2023/08/07 06:11:11;;;;;;;0.20;0.20;;;22.90;77.70;;;;;;6243691;23;20269;-85
2023/08/07 06:13:42;;;;;;;17.63;2.15;;;22.90;77.50;;;;;;6240195;23;20249;-85
2023/08/07 06:16:10;;;;;;;0.20;0.20;;;22.90;77.70;;;;;;6241123;23;20217;-87
2023/08/07 06:18:41;;;;;;;0.55;0.55;;;23.00;77.00;;;;;;6212226;23;20200;-84
2023/08/07 06:21:10;;;;;;;0.45;0.45;;;23.10;76.80;;;;;;6240040;23;20197;-84
2023/08/07 06:23:39;;;;;;;0.30;0.30;;;23.10;76.40;;;;;;6242914;23;20261;-84
2023/08/07 06:26:08;;;;;;;0.30;0.30;;;23.20;76.30;;;;;;6241456;23;20690;-87
2023/08/07 06:28:37;;;;;;;0.50;0.50;;;23.20;76.10;;;;;;6240909;23;20584;-83
2023/08/07 06:31:10;;;;;;;0.30;0.30;;;23.30;76.00;;;;;;6239355;23;20994;-84
2023/08/07 06:33:38;;;;;;;0.20;0.20;;;23.40;75.90;;;;;;6215422;23;20612;-82
2023/08/07 06:36:09;;;;;;;0.30;0.30;;;23.50;75.40;;;;;;6166817;23;20178;-83
2023/08/07 06:38:38;;;;;;;0.20;0.20;;;23.50;74.40;;;;;;6243499;23;20181;-83
2023/08/07 06:41:07;;;;;;;0.30;0.30;;;23.60;73.80;;;;;;6242924;23;20224;-84
2023/08/07 06:43:36;;;;;;;0.30;0.30;;;23.60;73.30;;;;;;6242371;23;20648;-83
2023/08/07 06:46:04;;;;;;;0.20;0.20;;;23.70;72.90;;;;;;6216895;23;20655;-83
2023/08/07 06:48:35;;;;;;;0.22;0.22;;;23.70;72.30;;;;;;6242803;23;20170;-83
2023/08/07 06:51:03;;;;;;;0.20;0.20;;;23.80;72.10;;;;;;6243146;23;20234;-83
2023/08/07 06:53:32;;;;;;;0.43;0.43;;;23.90;71.80;;;;;;6213622;23;20697;-84
2023/08/07 06:56:01;;;;;;;1.05;0.68;;;23.90;71.60;;;;;;6242161;23;20253;-85
2023/08/07 06:58:30;;;;;;;0.20;0.20;;;24.00;70.40;;;;;;6242249;23;20533;-83
2023/08/07 07:00:58;;;;;;;0.47;0.47;;;24.10;70.50;;;;;;6242584;23;20178;-83
2023/08/07 07:03:27;;;;;;;0.22;0.22;;;24.10;69.70;;;;;;6241902;23;20169;-81
2023/08/07 07:05:58;;;;;;;0.30;0.30;;;24.20;69.90;;;;;;6243552;23;20197;-83
2023/08/07 07:08:26;;;;;;;0.20;0.20;;;24.30;70.20;;;;;;6240256;23;20159;-82
2023/08/07 07:10:57;;;;;;;0.20;0.20;;;24.30;69.10;;;;;;6242380;23;20265;-82
2023/08/07 07:13:26;;;;;;;0.88;0.25;;;24.40;68.60;;;;;;6243073;23;20264;-82
2023/08/07 07:15:55;;;;;;;1.45;1.00;;;24.40;68.30;;;;;;6241922;23;20491;-83
2023/08/07 07:18:24;;;;;;;0.20;0.20;;;24.50;67.90;;;;;;6242370;23;20177;-82
2023/08/07 07:21:00;;;;;;;0.20;0.20;;;24.60;67.40;;;;;;6242486;23;20171;-83
2023/08/07 07:23:29;;;;;;;0.22;0.22;;;24.60;67.20;;;;;;6242277;23;20173;-82
2023/08/07 07:25:58;;;;;;;0.20;0.20;;;24.70;67.20;;;;;;6240703;23;20198;-83
2023/08/07 07:28:26;;;;;;;0.30;0.30;;;24.80;67.10;;;;;;6241505;23;20170;-83
2023/08/07 07:30:55;;;;;;;0.20;0.20;;;24.90;66.40;;;;;;6243596;23;20174;-84
2023/08/07 07:33:24;;;;;;;0.20;0.20;;;24.90;66.10;;;;;;6241747;23;20167;-82
2023/08/07 07:35:52;;;;;;;0.55;0.40;;;25.00;66.30;;;;;;6216737;23;20170;-83
2023/08/07 07:38:22;;;;;;;0.20;0.20;;;25.10;65.20;;;;;;6240776;23;20578;-83
2023/08/07 07:40:53;;;;;;;0.20;0.20;;;25.10;65.00;;;;;;6242745;23;20155;-84
2023/08/07 07:43:21;;;;;;;0.22;0.20;;;25.20;65.20;;;;;;6243213;23;20154;-82
2023/08/07 07:45:50;;;;;;;0.20;0.20;;;25.20;64.80;;;;;;6242199;23;20719;-83
2023/08/07 07:48:20;;;;;;;0.20;0.20;;;25.30;65.20;;;;;;6214912;23;20752;-84
2023/08/07 07:50:48;;;;;;;0.17;0.17;;;25.40;65.10;;;;;;6242491;23;20257;-82
2023/08/07 07:53:17;;;;;;;0.35;0.35;;;25.40;64.20;;;;;;6242456;23;20503;-84
2023/08/07 07:55:49;;;;;;;1.25;0.63;;;25.40;63.70;;;;;;6243031;23;20177;-82
2023/08/07 07:58:18;;;;;;;0.30;0.20;;;25.40;63.50;;;;;;6240354;23;20217;-82
2023/08/07 08:00:46;;;;;;;0.20;0.20;;;25.50;62.80;;;;;;6239921;23;20624;-83
2023/08/07 08:03:15;;;;;;;0.20;0.20;;;25.60;62.70;;;;;;6239672;23;20170;-82
2023/08/07 08:05:44;;;;;;;0.10;0.10;;;25.60;61.00;;;;;;6241510;23;20561;-81
2023/08/07 08:08:12;;;;;;;0.35;0.20;;;25.70;61.90;;;;;;6241537;23;20174;-84
2023/08/07 08:10:41;;;;;;;0.20;0.20;;;25.70;60.50;;;;;;6241847;23;20209;-82
2023/08/07 08:13:12;;;;;;;0.40;0.30;;;25.80;60.80;;;;;;6242828;23;20159;-83
2023/08/07 08:15:41;;;;;;;0.13;0.13;;;25.80;60.00;;;;;;6241499;23;20561;-83
2023/08/07 08:18:10;;;;;;;1.30;0.73;;;25.90;59.70;;;;;;6238661;23;20171;-82
2023/08/07 08:20:39;;;;;;;0.30;0.30;;;25.90;59.30;;;;;;6242722;23;20641;-83
2023/08/07 08:23:08;;;;;;;0.30;0.30;;;26.00;59.60;;;;;;6241479;23;20170;-84
2023/08/07 08:25:37;;;;;;;0.65;0.20;;;26.10;59.30;;;;;;6241621;23;20647;-85
2023/08/07 08:28:05;;;;;;;1.27;0.30;;;26.10;58.20;;;;;;6242246;23;20186;-84
2023/08/07 08:30:36;;;;;;;0.65;0.40;;;26.20;58.50;;;;;;6241071;23;20796;-82
2023/08/07 08:33:05;;;;;;;0.20;0.20;;;26.30;58.10;;;;;;6235081;23;20170;-82
2023/08/07 08:35:34;;;;;;;0.47;0.47;;;26.30;58.20;;;;;;6240181;23;20659;-82
2023/08/07 08:38:03;;;;;;;0.17;0.17;;;26.30;57.60;;;;;;6213744;23;20189;-82
2023/08/07 08:40:32;;;;;;;0.20;0.20;;;26.50;58.40;;;;;;6238276;23;20191;-84
2023/08/07 08:43:01;;;;;;;0.25;0.22;;;26.50;58.40;;;;;;6239463;23;20178;-82
2023/08/07 08:45:33;;;;;;;0.20;0.20;;;26.50;57.40;;;;;;6241681;23;20170;-82
2023/08/07 08:48:04;;;;;;;0.20;0.20;;;26.50;57.80;;;;;;6241321;23;20176;-85
2023/08/07 08:50:35;;;;;;;0.20;0.20;;;26.60;58.10;;;;;;6242848;23;20245;-87
2023/08/07 08:53:05;;;;;;;0.20;0.20;;;26.60;57.40;;;;;;6242104;23;20201;-88
2023/08/07 08:55:34;;;;;;;0.20;0.20;;;26.70;57.40;;;;;;6242202;23;20270;-87
2023/08/07 08:58:03;;;;;;;0.43;0.30;;;26.70;56.80;;;;;;6243042;23;20173;-85
2023/08/07 09:00:34;;;;;;;0.30;0.30;;;26.70;56.70;;;;;;6241724;23;20253;-86
2023/08/07 09:03:04;;;;;;;0.20;0.20;;;26.70;55.80;;;;;;6243456;23;20612;-86
2023/08/07 09:05:33;;;;;;;0.30;0.25;;;26.80;55.70;;;;;;6243292;23;20217;-83
2023/08/07 09:08:02;;;;;;;0.20;0.20;;;26.90;55.20;;;;;;6238387;23;20190;-84
2023/08/07 09:10:31;;;;;;;0.20;0.20;;;26.90;54.90;;;;;;6244088;23;20177;-81
2023/08/07 09:13:04;;;;;;;0.20;0.20;;;27.00;54.80;;;;;;6242696;23;20167;-84
2023/08/07 09:15:34;;;;;;;0.20;0.20;;;27.10;54.50;;;;;;6217240;23;20170;-84
2023/08/07 09:18:08;;;;;;;0.32;0.32;;;27.10;54.30;;;;;;6242419;23;20234;-81
2023/08/07 09:20:39;;;;;;;0.43;0.20;;;27.20;54.10;;;;;;6217304;23;20162;-81
2023/08/07 09:23:07;;;;;;;0.20;0.20;;;27.20;53.70;;;;;;6242561;23;20173;-82
2023/08/07 09:25:36;;;;;;;0.20;0.20;;;27.30;54.50;;;;;;6243377;23;20173;-82
2023/08/07 09:28:06;;;;;;;0.20;0.20;;;27.30;53.30;;;;;;6243846;23;20205;-82
2023/08/07 09:30:37;;;;;;;0.10;0.10;;;27.40;53.20;;;;;;6243265;23;20662;-83
2023/08/07 09:33:08;;;;;;;0.10;0.10;;;27.50;54.20;;;;;;6242928;23;20187;-83
2023/08/07 09:35:36;;;;;;;0.30;0.30;;;27.50;52.30;;;;;;6217333;23;20234;-82
2023/08/07 09:38:05;;;;;;;0.10;0.10;;;27.60;53.40;;;;;;6241575;23;20179;-81
2023/08/07 09:40:34;;;;;;;0.28;0.28;;;27.60;50.90;;;;;;6245271;23;20171;-86
2023/08/07 09:43:04;;;;;;;0.32;0.32;;;27.60;51.10;;;;;;6216334;23;20202;-87
2023/08/07 09:45:34;;;;;;;0.22;0.22;;;27.60;51.40;;;;;;6244448;23;20201;-85
2023/08/07 09:48:06;;;;;;;0.20;0.20;;;27.70;52.00;;;;;;6241568;23;20198;-83
2023/08/07 09:50:36;;;;;;;1.25;0.38;;;27.70;51.40;;;;;;6244451;23;20162;-83
2023/08/07 09:53:04;;;;;;;0.20;0.20;;;27.70;50.90;;;;;;6240476;23;20265;-84
2023/08/07 09:55:33;;;;;;;0.30;0.30;;;27.70;51.80;;;;;;6215852;23;20175;-82
2023/08/07 09:58:02;;;;;;;1.58;0.43;;;27.80;52.00;;;;;;6214524;23;20201;-83
2023/08/07 10:00:36;;;;;;;0.15;0.15;;;27.80;51.70;;;;;;6242824;23;20635;-86
2023/08/07 10:03:05;;;;;;;0.20;0.20;;;27.80;52.10;;;;;;6215536;23;20155;-85
2023/08/07 10:05:36;;;;;;;0.28;0.28;;;27.90;52.30;;;;;;6242919;23;20170;-85
2023/08/07 10:08:05;;;;;;;0.30;0.30;;;27.80;51.60;;;;;;6242140;23;20293;-85
2023/08/07 10:10:35;;;;;;;0.20;0.20;;;27.80;51.70;;;;;;6243363;23;20174;-88
2023/08/07 10:13:04;;;;;;;0.20;0.20;;;27.90;52.00;;;;;;6242561;23;20169;-86
2023/08/07 10:15:34;;;;;;;0.20;0.20;;;27.90;52.30;;;;;;6240866;23;20179;-83
2023/08/07 10:18:04;;;;;;;0.30;0.30;;;28.00;52.20;;;;;;6240615;23;20174;-83
2023/08/07 10:20:33;;;;;;;0.20;0.20;;;28.10;52.20;;;;;;6235299;23;20179;-83
2023/08/07 10:23:09;;;;;;;0.20;0.20;;;28.10;51.90;;;;;;6237738;23;20194;-84
2023/08/07 10:25:41;;;;;;;0.28;0.28;;;28.20;51.80;;;;;;6241838;23;20163;-84
2023/08/07 10:28:14;;;;;;;0.17;0.17;;;28.20;51.20;;;;;;6239629;23;20182;-83
2023/08/07 10:30:43;;;;;;;0.20;0.20;;;28.20;50.90;;;;;;6239373;23;20170;-84
2023/08/07 10:33:17;;;;;;;0.20;0.20;;;28.30;51.20;;;;;;6239843;23;20228;-85
2023/08/07 10:35:48;;;;;;;0.20;0.20;;;28.30;51.30;;;;;;6241015;23;20167;-85
2023/08/07 10:38:27;;;;;;;0.20;0.20;;;28.40;51.50;;;;;;6240900;23;20166;-89
2023/08/07 10:41:03;;;;;;;0.30;0.30;;;28.40;51.40;;;;;;6239220;23;20932;-84
2023/08/07 10:43:32;;;;;;;0.55;0.55;;;28.40;52.00;;;;;;6239474;23;20194;-86
2023/08/07 10:46:07;;;;;;;0.20;0.20;;;28.40;51.80;;;;;;6239265;23;20644;-86
2023/08/07 10:48:43;;;;;;;0.20;0.20;;;28.50;52.20;;;;;;6243274;23;20264;-85
2023/08/07 10:51:14;;;;;;;0.22;0.22;;;28.50;52.30;;;;;;6240986;23;20233;-84
2023/08/07 10:53:46;;;;;;;0.95;0.40;;;28.60;51.40;;;;;;6241898;23;20599;-83
2023/08/07 10:56:18;;;;;;;0.13;0.13;;;28.70;51.40;;;;;;6242821;23;20173;-86
2023/08/07 10:58:52;;;;;;;0.25;0.25;;;28.80;51.70;;;;;;6242007;23;20162;-85
2023/08/07 11:01:23;;;;;;;0.20;0.20;;;28.80;50.80;;;;;;6241032;23;20295;-84
2023/08/07 11:03:53;;;;;;;0.20;0.20;;;28.90;50.80;;;;;;6240161;23;20171;-87
2023/08/07 11:06:27;;;;;;;0.10;0.10;;;28.90;50.40;;;;;;6242718;23;20167;-84
2023/08/07 11:08:57;;;;;;;0.10;0.10;;;28.90;50.60;;;;;;6242037;23;20194;-83
2023/08/07 11:11:25;;;;;;;0.17;0.17;;;28.90;49.90;;;;;;6241360;23;20659;-85
2023/08/07 11:13:54;;;;;;;0.20;0.20;;;28.90;49.80;;;;;;6241089;23;20502;-85
2023/08/07 11:16:24;;;;;;;0.10;0.10;;;29.00;48.80;;;;;;6241812;23;20170;-85
2023/08/07 11:18:54;;;;;;;0.20;0.20;;;29.00;49.80;;;;;;6240655;23;20174;-85
2023/08/07 11:21:22;;;;;;;0.32;0.32;;;29.00;49.70;;;;;;6241799;23;20197;-84
2023/08/07 11:23:51;;;;;;;0.15;0.15;;;29.10;49.40;;;;;;6240731;23;20171;-84
2023/08/07 11:26:24;;;;;;;0.10;0.10;;;29.10;49.10;;;;;;6242102;23;20166;-85
2023/08/07 11:28:53;;;;;;;0.20;0.20;;;29.20;48.50;;;;;;6241810;23;20182;-85
2023/08/07 11:31:24;;;;;;;0.20;0.20;;;29.20;48.90;;;;;;6240997;23;20181;-85
2023/08/07 11:33:53;;;;;;;0.38;0.30;;;29.30;48.90;;;;;;6240986;23;20158;-84
2023/08/07 11:36:23;;;;;;;0.40;0.35;;;29.40;49.10;;;;;;6242090;23;20170;-85
2023/08/07 11:38:51;;;;;;;0.17;0.17;;;29.50;48.20;;;;;;6242080;23;20174;-84
2023/08/07 11:41:21;;;;;;;0.90;0.55;;;29.50;48.00;;;;;;6241356;23;20864;-84
2023/08/07 11:43:50;;;;;;;0.35;0.35;;;29.60;48.20;;;;;;6240881;23;20630;-83
2023/08/07 11:46:18;;;;;;;0.20;0.20;;;29.60;48.00;;;;;;6240417;23;20193;-84
2023/08/07 11:48:47;;;;;;;0.13;0.13;;;29.70;48.00;;;;;;6242487;23;20272;-85
2023/08/07 11:51:15;;;;;;;0.15;0.15;;;29.70;47.70;;;;;;6241381;23;20498;-84
2023/08/07 11:53:44;;;;;;;0.10;0.10;;;29.70;47.90;;;;;;6240628;23;20176;-85
2023/08/07 11:56:15;;;;;;;0.30;0.30;;;29.70;48.20;;;;;;6242211;23;20173;-87
2023/08/07 11:58:46;;;;;;;0.40;0.40;;;29.80;47.60;;;;;;6241539;23;20169;-83
2023/08/07 12:01:16;;;;;;;0.20;0.20;;;29.80;47.70;;;;;;6241140;23;20166;-83
2023/08/07 12:03:54;;;;;;;0.28;0.28;;;29.80;47.50;;;;;;6240962;23;20192;-84
2023/08/07 12:06:24;;;;;;;0.20;0.20;;;29.90;47.50;;;;;;6240429;23;20158;-85
2023/08/07 12:08:56;;;;;;;0.30;0.30;;;29.90;47.50;;;;;;6239705;23;20194;-85
2023/08/07 12:11:25;;;;;;;0.20;0.20;;;29.90;47.10;;;;;;6237632;23;20200;-89
2023/08/07 12:13:55;;;;;;;0.20;0.20;;;29.90;46.20;;;;;;6238609;23;20162;-84
2023/08/07 12:16:24;;;;;;;0.20;0.20;;;30.00;47.00;;;;;;6241382;23;20169;-84
2023/08/07 12:18:53;;;;;;;0.10;0.10;;;30.10;47.20;;;;;;6241559;23;20627;-86
2023/08/07 12:21:23;;;;;;;0.20;0.20;;;30.10;47.60;;;;;;6241575;23;20190;-84
2023/08/07 12:23:56;;;;;;;0.20;0.20;;;30.10;46.70;;;;;;6241768;23;20155;-85
2023/08/07 12:26:25;;;;;;;0.20;0.20;;;30.10;46.60;;;;;;6243295;23;20492;-84
2023/08/07 12:28:55;;;;;;;0.20;0.20;;;30.10;46.30;;;;;;6243609;23;20225;-85
2023/08/07 12:31:24;;;;;;;0.68;0.40;;;30.20;45.90;;;;;;6243527;23;20590;-84
2023/08/07 12:33:53;;;;;;;0.20;0.20;;;30.20;46.20;;;;;;6237690;23;20544;-89
2023/08/07 12:36:23;;;;;;;0.20;0.20;;;30.20;46.90;;;;;;6241670;23;20224;-86
2023/08/07 12:38:51;;;;;;;0.15;0.15;;;30.20;46.80;;;;;;6244055;23;20246;-86
2023/08/07 12:41:20;;;;;;;1.88;0.32;;;30.30;47.00;;;;;;6243368;23;20162;-85
2023/08/07 12:43:53;;;;;;;0.20;0.20;;;30.30;46.10;;;;;;6244052;23;20162;-87
2023/08/07 12:46:23;;;;;;;0.85;0.65;;;30.40;45.60;;;;;;6242952;23;20155;-86
2023/08/07 12:48:54;;;;;;;0.60;0.38;;;30.40;44.80;;;;;;6243260;23;20193;-86
2023/08/07 12:51:22;;;;;;;0.20;0.20;;;30.40;44.90;;;;;;6244834;23;20175;-85
2023/08/07 12:53:52;;;;;;;0.20;0.20;;;30.40;45.00;;;;;;6245323;23;20672;-89
2023/08/07 12:56:20;;;;;;;0.20;0.20;;;30.40;45.00;;;;;;6244568;23;20618;-89
2023/08/07 12:58:50;;;;;;;0.10;0.10;;;30.50;44.70;;;;;;6242987;23;20170;-88